createdAt,value
2023-03-29T00:00:50.212Z,86.44
2023-03-29T00:03:22.630Z,87.52
2023-03-29T00:06:00.634Z,88.71
2023-03-29T00:08:34.368Z,90.88
2023-03-29T00:11:05.488Z,85.90
2023-03-29T00:17:20.418Z,82.98
2023-03-29T00:19:48.699Z,83.13
2023-03-29T00:22:45.393Z,83.03
2023-03-29T00:25:18.642Z,83.55
2023-03-29T00:27:49.374Z,83.74
2023-03-29T00:30:18.616Z,85.30
2023-03-29T00:32:47.416Z,85.74
2023-03-29T00:35:14.610Z,87.94
2023-03-29T00:37:43.885Z,87.20
2023-03-29T00:40:13.271Z,86.13
2023-03-29T00:42:44.102Z,86.50
2023-03-29T00:45:11.944Z,86.61
2023-03-29T00:47:48.505Z,86.33
2023-03-29T00:50:18.959Z,86.82
2023-03-29T00:52:48.686Z,88.03
2023-03-29T00:55:18.907Z,87.45
2023-03-29T00:57:46.938Z,87.44
2023-03-29T01:00:18.311Z,88.43
2023-03-29T01:02:51.665Z,91.17
2023-03-29T01:05:26.068Z,92.98
2023-03-29T01:08:25.751Z,93.55
2023-03-29T01:11:12.211Z,96.51
2023-03-29T01:13:47.052Z,97.58
2023-03-29T01:16:14.577Z,99.41
2023-03-29T01:18:42.955Z,99.52
2023-03-29T01:21:12.914Z,100.00
2023-03-29T01:23:47.663Z,100.00
2023-03-29T01:26:30.571Z,100.00
2023-03-29T01:29:09.248Z,100.00
2023-03-29T01:31:39.360Z,96.92
2023-03-29T01:34:28.490Z,99.48
2023-03-29T01:37:00.447Z,98.14
2023-03-29T01:39:27.902Z,95.05
2023-03-29T01:41:56.880Z,94.64
2023-03-29T01:44:31.758Z,95.27
2023-03-29T01:47:05.574Z,96.25
2023-03-29T01:49:42.333Z,96.44
2023-03-29T01:52:15.028Z,96.85
2023-03-29T01:54:47.035Z,97.31
2023-03-29T01:57:16.248Z,95.50
2023-03-29T01:59:47.734Z,96.33
2023-03-29T02:02:16.144Z,97.20
2023-03-29T02:04:51.876Z,97.35
2023-03-29T02:07:21.474Z,97.04
2023-03-29T02:09:52.725Z,97.55
2023-03-29T02:12:20.252Z,98.55
2023-03-29T02:14:49.906Z,98.09
2023-03-29T02:17:18.517Z,100.00
2023-03-29T02:19:50.335Z,100.00
2023-03-29T02:22:28.643Z,100.00
2023-03-29T02:24:59.383Z,100.00
2023-03-29T02:27:31.040Z,100.00
2023-03-29T02:30:01.357Z,100.00
2023-03-29T02:32:46.702Z,100.00
2023-03-29T02:35:18.367Z,100.00
2023-03-29T02:37:54.605Z,100.00
2023-03-29T02:40:26.560Z,100.00
2023-03-29T02:42:58.495Z,100.00
2023-03-29T02:45:28.209Z,100.00
2023-03-29T02:47:57.319Z,100.00
2023-03-29T02:50:28.983Z,100.00
2023-03-29T02:53:00.149Z,100.00
2023-03-29T02:55:35.310Z,100.00
2023-03-29T02:58:09.414Z,100.00
2023-03-29T03:00:41.472Z,100.00
2023-03-29T03:03:09.779Z,100.00
2023-03-29T03:05:39.499Z,100.00
2023-03-29T03:08:08.546Z,100.00
2023-03-29T03:10:37.847Z,100.00
2023-03-29T03:13:06.957Z,100.00
2023-03-29T03:15:37.558Z,100.00
2023-03-29T03:18:04.761Z,100.00
2023-03-29T03:20:36.032Z,100.00
2023-03-29T03:23:05.729Z,100.00
2023-03-29T03:25:35.954Z,100.00
2023-03-29T03:28:03.105Z,100.00
2023-03-29T03:30:37.879Z,100.00
2023-03-29T03:33:18.051Z,100.00
2023-03-29T03:36:11.435Z,100.00
2023-03-29T03:38:40.368Z,100.00
2023-03-29T03:41:09.564Z,100.00
2023-03-29T03:43:38.175Z,100.00
2023-03-29T03:46:08.722Z,100.00
2023-03-29T03:48:37.417Z,100.00
2023-03-29T03:51:27.237Z,100.00
2023-03-29T03:53:54.351Z,100.00
2023-03-29T03:56:38.504Z,100.00
2023-03-29T03:59:17.524Z,98.38
2023-03-29T04:02:07.957Z,100.00
2023-03-29T04:04:38.055Z,100.00
2023-03-29T04:07:18.108Z,100.00
2023-03-29T04:10:20.917Z,98.55
2023-03-29T04:12:56.837Z,96.46
2023-03-29T04:15:24.738Z,95.90
2023-03-29T04:18:00.779Z,93.68
2023-03-29T04:20:36.125Z,90.06
2023-03-29T04:23:04.952Z,87.71
2023-03-29T04:25:32.805Z,87.57
2023-03-29T04:28:18.771Z,86.19
2023-03-29T04:31:03.202Z,86.07
2023-03-29T04:33:59.137Z,86.28
2023-03-29T04:36:33.769Z,85.63
2023-03-29T04:39:04.766Z,84.64
2023-03-29T04:41:36.828Z,83.63
2023-03-29T04:44:46.886Z,83.19
2023-03-29T04:47:21.426Z,84.14
2023-03-29T04:50:01.873Z,84.44
2023-03-29T04:52:40.182Z,83.89
2023-03-29T04:55:34.594Z,84.70
2023-03-29T04:58:04.941Z,84.46
2023-03-29T05:00:38.102Z,82.37
2023-03-29T05:04:06.420Z,81.49
2023-03-29T05:09:48.998Z,77.95
2023-03-29T05:12:22.783Z,77.63
2023-03-29T05:15:00.055Z,77.16
2023-03-29T05:17:34.993Z,75.25
2023-03-29T05:20:11.919Z,74.79
2023-03-29T05:22:42.178Z,74.12
2023-03-29T05:25:13.598Z,74.91
2023-03-29T05:27:46.002Z,73.75
2023-03-29T05:30:15.485Z,72.42
2023-03-29T05:33:01.828Z,71.88
2023-03-29T05:35:31.525Z,71.30
2023-03-29T05:38:01.886Z,72.30
2023-03-29T05:40:29.803Z,72.58
2023-03-29T05:43:18.825Z,72.58
2023-03-29T05:45:47.072Z,71.08
2023-03-29T05:48:14.429Z,71.73
2023-03-29T05:50:47.630Z,71.49
2023-03-29T05:53:18.375Z,68.95
2023-03-29T05:55:46.763Z,64.66
2023-03-29T05:58:20.319Z,60.28
2023-03-29T06:00:52.325Z,57.27
2023-03-29T06:03:43.644Z,56.33
2023-03-29T06:06:11.107Z,55.73
2023-03-29T06:10:18.898Z,55.21
2023-03-29T06:12:54.684Z,56.12
2023-03-29T06:15:26.468Z,57.29
2023-03-29T06:18:19.467Z,56.61
2023-03-29T06:20:50.419Z,57.15
2023-03-29T06:23:24.374Z,58.56
2023-03-29T06:25:52.003Z,56.81
2023-03-29T06:28:21.363Z,55.26
2023-03-29T06:30:55.117Z,53.88
2023-03-29T06:33:34.476Z,53.62
2023-03-29T06:36:19.535Z,53.57
2023-03-29T06:38:51.671Z,55.96
2023-03-29T06:41:36.915Z,53.22
2023-03-29T06:44:28.489Z,53.26
2023-03-29T06:47:04.424Z,53.73
2023-03-29T06:49:35.563Z,52.12
2023-03-29T06:52:27.253Z,53.01
2023-03-29T06:55:03.416Z,51.63
2023-03-29T06:57:36.196Z,50.26
2023-03-29T07:00:31.128Z,50.36
2023-03-29T07:03:25.615Z,50.38
2023-03-29T07:06:04.688Z,50.68
2023-03-29T07:08:47.046Z,48.40
2023-03-29T07:11:31.687Z,46.14
2023-03-29T07:14:08.187Z,47.28
2023-03-29T07:16:37.841Z,46.58
2023-03-29T07:19:16.626Z,47.09
2023-03-29T07:21:57.104Z,47.62
2023-03-29T07:24:37.648Z,46.04
2023-03-29T07:27:05.302Z,45.52
2023-03-29T07:29:34.222Z,46.19
2023-03-29T07:32:01.754Z,46.56
2023-03-29T07:34:44.449Z,46.52
2023-03-29T07:37:24.784Z,44.98
2023-03-29T07:39:54.085Z,45.61
2023-03-29T07:42:44.290Z,46.42
2023-03-29T07:45:17.137Z,45.23
2023-03-29T07:47:59.813Z,43.03
2023-03-29T07:50:33.636Z,42.96
2023-03-29T07:53:05.286Z,46.35
2023-03-29T07:55:36.700Z,45.34
2023-03-29T07:58:27.581Z,44.71
2023-03-29T08:00:55.141Z,45.75
2023-03-29T08:03:46.687Z,44.87
2023-03-29T08:06:16.232Z,43.75
2023-03-29T08:08:44.206Z,47.96
2023-03-29T08:11:15.439Z,45.99
2023-03-29T08:13:59.102Z,45.79
2023-03-29T08:16:27.183Z,48.27
2023-03-29T08:19:09.105Z,44.46
2023-03-29T08:22:02.244Z,44.86
2023-03-29T08:24:39.980Z,43.78
2023-03-29T08:27:08.369Z,43.08
2023-03-29T08:29:36.398Z,43.62
2023-03-29T08:32:05.552Z,41.40
2023-03-29T08:34:35.576Z,44.92
2023-03-29T08:37:17.786Z,43.45
2023-03-29T08:39:48.632Z,40.96
2023-03-29T08:43:04.935Z,43.07
2023-03-29T08:46:12.079Z,45.13
2023-03-29T08:48:44.741Z,44.34
2023-03-29T08:51:14.571Z,46.45
2023-03-29T08:54:02.440Z,44.93
2023-03-29T08:56:46.995Z,44.02
2023-03-29T08:59:29.516Z,43.99
2023-03-29T09:01:59.400Z,41.73
2023-03-29T09:04:35.099Z,40.35
2023-03-29T09:07:11.596Z,40.18
2023-03-29T09:09:43.647Z,39.68
2023-03-29T09:12:44.244Z,39.80
2023-03-29T09:15:22.299Z,39.43
2023-03-29T09:18:37.807Z,40.11
2023-03-29T09:21:22.555Z,41.27
2023-03-29T09:24:15.871Z,42.30
2023-03-29T09:27:11.140Z,43.01
2023-03-29T09:30:14.740Z,42.84
2023-03-29T09:32:53.275Z,40.12
2023-03-29T09:35:38.362Z,42.40
2023-03-29T09:38:12.607Z,41.02
2023-03-29T09:40:46.874Z,42.77
2023-03-29T09:43:37.997Z,41.95
2023-03-29T09:46:24.391Z,42.04
2023-03-29T09:48:54.827Z,41.37
2023-03-29T09:51:27.263Z,43.47
2023-03-29T09:54:00.241Z,42.62
2023-03-29T09:56:46.237Z,42.56
2023-03-29T09:59:17.331Z,39.26
2023-03-29T10:01:45.992Z,41.10
2023-03-29T10:04:16.943Z,39.33
2023-03-29T10:06:52.835Z,38.33
2023-03-29T10:09:23.396Z,39.15
2023-03-29T10:11:58.594Z,39.56
2023-03-29T10:14:31.975Z,41.47
2023-03-29T10:16:59.830Z,39.61
2023-03-29T10:19:34.962Z,39.35
2023-03-29T10:22:14.394Z,38.96
2023-03-29T10:24:49.382Z,39.00
2023-03-29T10:27:23.382Z,36.46
2023-03-29T10:29:52.148Z,36.39
2023-03-29T10:32:37.886Z,36.39
2023-03-29T10:35:29.450Z,38.14
2023-03-29T10:38:01.602Z,37.13
2023-03-29T10:40:41.915Z,36.94
2023-03-29T10:43:35.087Z,37.02
2023-03-29T10:46:19.695Z,37.33
2023-03-29T10:48:55.906Z,36.17
2023-03-29T10:51:25.460Z,34.94
2023-03-29T10:53:53.434Z,34.66
2023-03-29T10:56:39.175Z,35.48
2023-03-29T10:59:17.105Z,32.79
2023-03-29T11:02:25.311Z,33.78
2023-03-29T11:05:06.137Z,35.19
2023-03-29T11:08:18.328Z,35.56
2023-03-29T11:10:50.520Z,36.70
2023-03-29T11:13:23.716Z,35.27
2023-03-29T11:16:05.407Z,34.89
2023-03-29T11:19:16.291Z,33.97
2023-03-29T11:22:13.012Z,35.13
2023-03-29T11:25:02.801Z,32.16
2023-03-29T11:27:57.845Z,36.43
2023-03-29T11:30:38.472Z,34.48
2023-03-29T11:33:37.631Z,33.78
2023-03-29T11:36:11.936Z,33.31
2023-03-29T11:38:51.159Z,34.32
2023-03-29T11:41:23.506Z,34.97
2023-03-29T11:44:08.770Z,34.62
2023-03-29T11:46:43.733Z,33.44
2023-03-29T11:49:21.553Z,36.37
2023-03-29T11:51:58.395Z,34.10
2023-03-29T11:54:41.274Z,32.23
2023-03-29T11:57:15.018Z,33.69
2023-03-29T11:59:57.106Z,34.40
2023-03-29T12:02:53.915Z,35.31
2023-03-29T12:05:28.182Z,34.20
2023-03-29T12:07:58.980Z,36.93
2023-03-29T12:10:37.769Z,33.85
2023-03-29T12:13:29.412Z,31.93
2023-03-29T12:16:26.439Z,31.49
2023-03-29T12:19:01.542Z,33.30
2023-03-29T12:21:31.195Z,33.22
2023-03-29T12:23:59.471Z,30.14
2023-03-29T12:26:47.460Z,29.97
2023-03-29T12:29:43.842Z,30.41
2023-03-29T12:32:41.816Z,31.68
2023-03-29T12:36:06.071Z,31.97
2023-03-29T12:38:52.858Z,33.66
2023-03-29T12:41:41.823Z,35.58
2023-03-29T12:44:28.316Z,37.70
2023-03-29T12:47:02.203Z,38.25
2023-03-29T12:49:34.365Z,37.51
2023-03-29T12:52:07.211Z,37.77
2023-03-29T12:54:34.823Z,37.54
2023-03-29T12:57:21.916Z,38.64
2023-03-29T12:59:49.927Z,37.77
2023-03-29T13:02:18.199Z,39.56
2023-03-29T13:04:57.359Z,38.75
2023-03-29T13:07:26.512Z,39.20
2023-03-29T13:09:58.263Z,37.95
2023-03-29T13:12:46.209Z,38.98
2023-03-29T13:15:17.047Z,38.91
2023-03-29T13:18:20.580Z,37.41
2023-03-29T13:21:07.819Z,37.69
2023-03-29T13:23:57.218Z,36.31
2023-03-29T13:26:37.492Z,36.04
2023-03-29T13:29:16.926Z,36.30
2023-03-29T13:31:52.356Z,35.84
2023-03-29T13:35:07.022Z,35.61
2023-03-29T13:37:57.507Z,34.82
2023-03-29T13:40:47.983Z,34.32
2023-03-29T13:43:30.884Z,31.32
2023-03-29T13:45:58.089Z,32.20
2023-03-29T13:49:01.677Z,33.74
2023-03-29T13:51:37.062Z,35.43
2023-03-29T13:54:43.106Z,35.17
2023-03-29T13:57:10.218Z,35.21
2023-03-29T13:59:49.847Z,34.61
2023-03-29T14:02:32.971Z,36.93
2023-03-29T14:05:04.272Z,35.23
2023-03-29T14:07:34.349Z,35.41
2023-03-29T14:10:02.875Z,35.49
2023-03-29T14:12:35.631Z,32.72
2023-03-29T14:15:06.358Z,33.13
2023-03-29T14:17:36.591Z,32.87
2023-03-29T14:20:09.812Z,35.52
2023-03-29T14:22:37.960Z,35.24
2023-03-29T14:25:15.657Z,35.77
2023-03-29T14:27:43.191Z,35.65
2023-03-29T14:30:28.992Z,37.69
2023-03-29T14:32:56.893Z,34.88
2023-03-29T14:35:31.631Z,38.87
2023-03-29T14:37:59.980Z,37.80
2023-03-29T14:40:27.978Z,35.78
2023-03-29T14:42:55.733Z,37.30
2023-03-29T14:45:27.647Z,37.21
2023-03-29T14:48:14.332Z,36.68
2023-03-29T14:50:53.735Z,36.46
2023-03-29T14:54:02.313Z,37.51
2023-03-29T14:57:27.404Z,36.45
2023-03-29T15:00:24.836Z,37.35
2023-03-29T15:03:03.156Z,37.49
2023-03-29T15:06:06.268Z,37.99
2023-03-29T15:09:01.501Z,37.35
2023-03-29T15:11:34.036Z,36.70
2023-03-29T15:14:18.401Z,37.10
2023-03-29T15:16:56.212Z,38.47
2023-03-29T15:19:29.385Z,37.75
2023-03-29T15:22:27.740Z,38.53
2023-03-29T15:25:33.095Z,41.17
2023-03-29T15:28:03.290Z,38.27
2023-03-29T15:31:00.758Z,39.46
2023-03-29T15:34:13.388Z,38.93
2023-03-29T15:36:47.653Z,38.38
2023-03-29T15:39:29.884Z,39.45
2023-03-29T15:41:59.607Z,41.78
2023-03-29T15:44:39.538Z,39.60
2023-03-29T15:47:41.451Z,40.71
2023-03-29T15:50:21.373Z,40.60
2023-03-29T15:53:14.259Z,41.72
2023-03-29T15:56:02.415Z,43.29
2023-03-29T15:58:50.703Z,41.24
2023-03-29T16:01:41.963Z,40.61
2023-03-29T16:04:23.839Z,39.90
2023-03-29T16:07:01.482Z,40.70
2023-03-29T16:09:29.679Z,40.96
2023-03-29T16:12:23.867Z,40.71
2023-03-29T16:14:57.240Z,41.71
2023-03-29T16:17:37.086Z,42.23
2023-03-29T16:20:21.707Z,42.85
2023-03-29T16:23:07.323Z,43.77
2023-03-29T16:25:37.645Z,43.91
2023-03-29T16:28:18.919Z,46.19
2023-03-29T16:30:55.204Z,45.01
2023-03-29T16:33:36.901Z,44.92
2023-03-29T16:36:08.244Z,45.13
2023-03-29T16:38:43.752Z,45.80
2023-03-29T16:41:22.454Z,46.45
2023-03-29T16:44:06.460Z,45.74
2023-03-29T16:46:39.330Z,45.53
2023-03-29T16:49:36.764Z,46.64
2023-03-29T16:52:06.741Z,46.79
2023-03-29T16:54:33.966Z,46.70
2023-03-29T16:57:07.243Z,46.53
2023-03-29T16:59:36.422Z,48.42
2023-03-29T17:02:05.089Z,45.82
2023-03-29T17:04:40.060Z,46.10
2023-03-29T17:07:14.162Z,47.11
2023-03-29T17:10:08.391Z,48.15
2023-03-29T17:12:40.229Z,47.68
2023-03-29T17:15:12.153Z,46.96
2023-03-29T17:17:42.408Z,47.80
2023-03-29T17:20:12.714Z,47.74
2023-03-29T17:22:42.146Z,47.48
2023-03-29T17:25:10.135Z,47.75
2023-03-29T17:27:41.871Z,48.43
2023-03-29T17:30:12.322Z,47.95
2023-03-29T17:32:45.893Z,48.73
2023-03-29T17:35:15.480Z,48.84
2023-03-29T17:37:46.342Z,48.97
2023-03-29T17:40:14.483Z,48.86
2023-03-29T17:42:50.317Z,48.88
2023-03-29T17:48:06.589Z,49.41
2023-03-29T17:50:37.850Z,50.16
2023-03-29T17:53:14.118Z,51.05
2023-03-29T17:55:45.064Z,49.68
2023-03-29T17:58:18.990Z,49.46
2023-03-29T18:00:49.867Z,49.83
2023-03-29T18:03:17.562Z,50.01
2023-03-29T18:06:14.537Z,49.69
2023-03-29T18:09:05.776Z,50.05
2023-03-29T18:11:59.376Z,50.37
2023-03-29T18:14:43.416Z,51.09
2023-03-29T18:17:15.416Z,51.02
2023-03-29T18:19:51.608Z,50.58
2023-03-29T18:22:24.249Z,50.46
2023-03-29T18:24:59.745Z,50.54
2023-03-29T18:28:04.229Z,50.41
2023-03-29T18:30:56.343Z,50.69
2023-03-29T18:33:23.983Z,50.69
2023-03-29T18:35:53.886Z,51.68
2023-03-29T18:38:43.820Z,50.84
2023-03-29T18:41:37.441Z,50.94
2023-03-29T18:44:14.185Z,50.63
2023-03-29T18:46:55.029Z,50.77
2023-03-29T18:50:02.799Z,51.42
2023-03-29T18:52:55.658Z,51.47
2023-03-29T18:55:25.591Z,51.27
2023-03-29T18:58:20.448Z,51.61
2023-03-29T19:01:16.836Z,51.91
2023-03-29T19:04:03.686Z,52.21
2023-03-29T19:08:07.176Z,52.78
2023-03-29T19:11:06.241Z,53.45
2023-03-29T19:13:40.402Z,54.06
2023-03-29T19:16:13.974Z,54.18
2023-03-29T19:19:08.070Z,54.46
2023-03-29T19:21:50.087Z,54.01
2023-03-29T19:25:36.380Z,53.75
2023-03-29T19:28:05.654Z,52.12
2023-03-29T19:31:15.954Z,51.47
2023-03-29T19:33:49.696Z,51.28
2023-03-29T19:36:18.748Z,50.89
2023-03-29T19:38:50.209Z,50.94
2023-03-29T19:41:18.697Z,52.52
2023-03-29T19:44:21.929Z,52.67
2023-03-29T19:47:20.951Z,52.91
2023-03-29T19:49:51.708Z,52.64
2023-03-29T19:52:46.032Z,52.05
2023-03-29T19:55:45.688Z,53.12
2023-03-29T19:58:14.805Z,53.38
2023-03-29T20:00:47.175Z,52.85
2023-03-29T20:06:45.234Z,52.90
2023-03-29T20:09:46.673Z,52.84
2023-03-29T20:12:20.773Z,52.33
2023-03-29T20:14:56.700Z,52.45
2023-03-29T20:17:26.890Z,51.98
2023-03-29T20:19:55.630Z,52.12
2023-03-29T20:22:30.722Z,52.52
2023-03-29T20:24:59.694Z,52.34
2023-03-29T20:27:32.692Z,53.14
2023-03-29T20:30:52.173Z,53.44
2023-03-29T20:33:49.182Z,53.64
2023-03-29T20:36:23.268Z,53.97
2023-03-29T20:38:56.361Z,54.06
2023-03-29T20:41:27.859Z,54.51
2023-03-29T20:44:28.513Z,54.50
2023-03-29T20:47:05.189Z,54.41
2023-03-29T20:49:55.497Z,54.79
2023-03-29T20:52:36.063Z,54.93
2023-03-29T20:55:07.263Z,54.53
2023-03-29T20:57:38.484Z,54.50
2023-03-29T21:00:13.123Z,54.46
2023-03-29T21:06:44.335Z,54.29
2023-03-29T21:10:10.199Z,54.33
2023-03-29T21:13:09.575Z,54.49
2023-03-29T21:16:08.185Z,54.20
2023-03-29T21:19:02.452Z,55.03
2023-03-29T21:21:33.810Z,55.48
2023-03-29T21:24:05.910Z,54.68
2023-03-29T21:26:36.934Z,54.36
2023-03-29T21:29:11.344Z,54.65
2023-03-29T21:31:41.382Z,53.79
2023-03-29T21:34:16.005Z,53.07
2023-03-29T21:36:48.228Z,53.46
2023-03-29T21:39:42.497Z,53.52
2023-03-29T21:42:17.253Z,53.68
2023-03-29T21:44:49.126Z,53.85
2023-03-29T21:47:20.261Z,54.41
2023-03-29T21:49:48.418Z,54.12
2023-03-29T21:52:40.724Z,54.77
2023-03-29T21:55:37.584Z,54.48
2023-03-29T21:58:06.726Z,55.07
2023-03-29T22:00:38.804Z,55.37
2023-03-29T22:03:08.784Z,55.33
2023-03-29T22:05:46.623Z,55.38
2023-03-29T22:08:14.196Z,55.47
2023-03-29T22:10:45.558Z,55.69
2023-03-29T22:13:40.841Z,55.41
2023-03-29T22:16:15.172Z,55.55
2023-03-29T22:18:55.710Z,55.16
2023-03-29T22:21:41.060Z,55.07
2023-03-29T22:24:09.490Z,55.24
2023-03-29T22:26:38.127Z,55.20
2023-03-29T22:29:15.724Z,54.69
2023-03-29T22:31:43.326Z,54.30
2023-03-29T22:34:10.606Z,54.33
2023-03-29T22:36:40.418Z,54.38
2023-03-29T22:39:08.123Z,54.33
2023-03-29T22:41:36.219Z,54.95
2023-03-29T22:44:03.954Z,55.28
2023-03-29T22:46:32.292Z,55.43
2023-03-29T22:49:03.046Z,55.27
2023-03-29T22:51:30.760Z,54.98
2023-03-29T22:53:58.442Z,54.32
2023-03-29T22:56:27.323Z,54.21
2023-03-29T22:58:55.276Z,54.35
2023-03-29T23:01:27.428Z,54.45
2023-03-29T23:04:21.173Z,54.40
2023-03-29T23:06:48.714Z,54.45
2023-03-29T23:09:16.597Z,54.64
2023-03-29T23:11:44.348Z,55.07
2023-03-29T23:14:12.249Z,54.95
2023-03-29T23:16:40.240Z,54.79
2023-03-29T23:19:07.499Z,54.24
2023-03-29T23:21:36.187Z,55.07
2023-03-29T23:24:03.678Z,54.49
2023-03-29T23:26:31.222Z,54.69
2023-03-29T23:28:59.716Z,54.51
2023-03-29T23:31:27.672Z,54.80
2023-03-29T23:34:00.633Z,54.89
2023-03-29T23:36:31.613Z,54.87
2023-03-29T23:38:59.668Z,54.96
2023-03-29T23:41:29.195Z,55.69
2023-03-29T23:44:03.753Z,55.69
2023-03-29T23:46:40.556Z,55.40
2023-03-29T23:49:11.938Z,56.13
2023-03-29T23:52:14.850Z,56.57
2023-03-29T23:54:45.803Z,56.57
2023-03-29T23:57:17.875Z,56.59
2023-03-29T23:59:46.974Z,56.81
